sensor_id;sensor_type;location;lat;lon;timestamp;temperature;humidity
4548;DHT22;2286;51.570;7.090;2023-07-22T00:02:08;14.40;1.00
4548;DHT22;2286;51.570;7.090;2023-07-22T00:04:35;14.40;1.00
4548;DHT22;2286;51.570;7.090;2023-07-22T00:07:02;14.30;1.00
4548;DHT22;2286;51.570;7.090;2023-07-22T00:09:32;14.30;1.00
4548;DHT22;2286;51.570;7.090;2023-07-22T00:12:00;14.40;1.00
4548;DHT22;2286;51.570;7.090;2023-07-22T00:14:27;14.40;1.00
4548;DHT22;2286;51.570;7.090;2023-07-22T00:16:54;14.40;1.00
4548;DHT22;2286;51.570;7.090;2023-07-22T00:19:21;14.40;1.00
4548;DHT22;2286;51.570;7.090;2023-07-22T00:21:49;14.50;1.00
4548;DHT22;2286;51.570;7.090;2023-07-22T00:24:17;14.50;99.90
4548;DHT22;2286;51.570;7.090;2023-07-22T00:26:45;14.50;99.90
4548;DHT22;2286;51.570;7.090;2023-07-22T00:29:12;14.50;99.90
4548;DHT22;2286;51.570;7.090;2023-07-22T00:31:39;14.50;99.90
4548;DHT22;2286;51.570;7.090;2023-07-22T00:34:07;14.50;1.00
4548;DHT22;2286;51.570;7.090;2023-07-22T00:36:34;14.50;1.00
4548;DHT22;2286;51.570;7.090;2023-07-22T00:39:01;14.50;1.00
4548;DHT22;2286;51.570;7.090;2023-07-22T00:41:28;14.50;99.90
4548;DHT22;2286;51.570;7.090;2023-07-22T00:43:57;14.50;99.90
4548;DHT22;2286;51.570;7.090;2023-07-22T00:46:24;14.50;1.00
4548;DHT22;2286;51.570;7.090;2023-07-22T00:48:51;14.60;99.90
4548;DHT22;2286;51.570;7.090;2023-07-22T00:51:18;14.50;99.90
4548;DHT22;2286;51.570;7.090;2023-07-22T00:53:48;14.50;99.90
4548;DHT22;2286;51.570;7.090;2023-07-22T00:56:15;14.50;99.90
4548;DHT22;2286;51.570;7.090;2023-07-22T00:58:42;14.60;99.90
4548;DHT22;2286;51.570;7.090;2023-07-22T01:01:10;14.50;99.90
4548;DHT22;2286;51.570;7.090;2023-07-22T01:03:37;14.50;99.90
4548;DHT22;2286;51.570;7.090;2023-07-22T01:06:04;14.60;70.20
4548;DHT22;2286;51.570;7.090;2023-07-22T01:08:32;14.50;98.10
4548;DHT22;2286;51.570;7.090;2023-07-22T01:10:59;14.50;34.60
4548;DHT22;2286;51.570;7.090;2023-07-22T01:13:26;14.50;99.90
4548;DHT22;2286;51.570;7.090;2023-07-22T01:15:53;14.50;99.90
4548;DHT22;2286;51.570;7.090;2023-07-22T01:18:21;14.50;92.00
4548;DHT22;2286;51.570;7.090;2023-07-22T01:20:48;14.50;99.90
4548;DHT22;2286;51.570;7.090;2023-07-22T01:23:17;14.40;99.90
4548;DHT22;2286;51.570;7.090;2023-07-22T01:25:44;14.40;99.90
4548;DHT22;2286;51.570;7.090;2023-07-22T01:28:11;14.40;99.90
4548;DHT22;2286;51.570;7.090;2023-07-22T01:30:38;14.40;99.90
4548;DHT22;2286;51.570;7.090;2023-07-22T01:33:06;14.40;99.90
4548;DHT22;2286;51.570;7.090;2023-07-22T01:35:33;14.30;99.90
4548;DHT22;2286;51.570;7.090;2023-07-22T01:38:00;14.40;99.90
4548;DHT22;2286;51.570;7.090;2023-07-22T01:40:28;14.40;99.90
4548;DHT22;2286;51.570;7.090;2023-07-22T01:42:55;14.40;99.90
4548;DHT22;2286;51.570;7.090;2023-07-22T01:45:22;14.40;99.90
4548;DHT22;2286;51.570;7.090;2023-07-22T01:47:48;14.40;99.90
4548;DHT22;2286;51.570;7.090;2023-07-22T01:50:15;14.40;99.90
4548;DHT22;2286;51.570;7.090;2023-07-22T01:52:44;14.40;99.90
4548;DHT22;2286;51.570;7.090;2023-07-22T01:55:12;14.40;99.90
4548;DHT22;2286;51.570;7.090;2023-07-22T01:57:41;14.50;99.90
4548;DHT22;2286;51.570;7.090;2023-07-22T02:00:08;14.50;99.90
4548;DHT22;2286;51.570;7.090;2023-07-22T02:02:37;14.50;99.90
4548;DHT22;2286;51.570;7.090;2023-07-22T02:05:06;14.40;99.90
4548;DHT22;2286;51.570;7.090;2023-07-22T02:07:33;14.40;99.90
4548;DHT22;2286;51.570;7.090;2023-07-22T02:09:59;14.40;99.90
4548;DHT22;2286;51.570;7.090;2023-07-22T02:12:26;14.30;99.90
4548;DHT22;2286;51.570;7.090;2023-07-22T02:14:55;14.30;99.90
4548;DHT22;2286;51.570;7.090;2023-07-22T02:17:22;14.20;99.90
4548;DHT22;2286;51.570;7.090;2023-07-22T02:19:49;14.20;99.90
4548;DHT22;2286;51.570;7.090;2023-07-22T02:22:16;14.20;99.90
4548;DHT22;2286;51.570;7.090;2023-07-22T02:24:43;14.20;99.90
4548;DHT22;2286;51.570;7.090;2023-07-22T02:27:10;14.30;99.90
4548;DHT22;2286;51.570;7.090;2023-07-22T02:29:37;14.30;99.90
4548;DHT22;2286;51.570;7.090;2023-07-22T02:32:06;14.30;99.90
4548;DHT22;2286;51.570;7.090;2023-07-22T02:34:34;14.30;99.90
4548;DHT22;2286;51.570;7.090;2023-07-22T02:37:01;14.30;99.90
4548;DHT22;2286;51.570;7.090;2023-07-22T02:39:27;14.30;99.90
4548;DHT22;2286;51.570;7.090;2023-07-22T02:41:54;14.30;99.90
4548;DHT22;2286;51.570;7.090;2023-07-22T02:44:21;14.40;99.90
4548;DHT22;2286;51.570;7.090;2023-07-22T02:46:48;14.40;99.90
4548;DHT22;2286;51.570;7.090;2023-07-22T02:49:17;14.40;99.90
4548;DHT22;2286;51.570;7.090;2023-07-22T02:51:43;14.40;99.90
4548;DHT22;2286;51.570;7.090;2023-07-22T02:54:10;14.50;99.90
4548;DHT22;2286;51.570;7.090;2023-07-22T02:56:37;14.60;83.20
4548;DHT22;2286;51.570;7.090;2023-07-22T02:59:04;14.60;1.00
4548;DHT22;2286;51.570;7.090;2023-07-22T03:01:32;14.70;1.00
4548;DHT22;2286;51.570;7.090;2023-07-22T03:03:59;14.70;1.00
4548;DHT22;2286;51.570;7.090;2023-07-22T03:06:27;14.80;1.00
4548;DHT22;2286;51.570;7.090;2023-07-22T03:08:54;14.80;1.00
4548;DHT22;2286;51.570;7.090;2023-07-22T03:11:23;14.90;1.00
4548;DHT22;2286;51.570;7.090;2023-07-22T03:13:50;14.80;1.00
4548;DHT22;2286;51.570;7.090;2023-07-22T03:16:17;14.90;1.00
4548;DHT22;2286;51.570;7.090;2023-07-22T03:18:44;14.80;1.00
4548;DHT22;2286;51.570;7.090;2023-07-22T03:21:11;14.90;1.00
4548;DHT22;2286;51.570;7.090;2023-07-22T03:23:40;14.90;99.90
4548;DHT22;2286;51.570;7.090;2023-07-22T03:26:07;14.90;1.00
4548;DHT22;2286;51.570;7.090;2023-07-22T03:28:33;14.90;1.00
4548;DHT22;2286;51.570;7.090;2023-07-22T03:31:00;14.90;99.90
4548;DHT22;2286;51.570;7.090;2023-07-22T03:33:27;14.90;99.90
4548;DHT22;2286;51.570;7.090;2023-07-22T03:35:54;14.90;99.90
4548;DHT22;2286;51.570;7.090;2023-07-22T03:38:21;14.90;99.90
4548;DHT22;2286;51.570;7.090;2023-07-22T03:40:49;14.90;99.90
4548;DHT22;2286;51.570;7.090;2023-07-22T03:43:18;14.90;99.90
4548;DHT22;2286;51.570;7.090;2023-07-22T03:45:45;14.90;1.00
4548;DHT22;2286;51.570;7.090;2023-07-22T03:48:12;14.90;99.90
4548;DHT22;2286;51.570;7.090;2023-07-22T03:50:39;14.90;99.90
4548;DHT22;2286;51.570;7.090;2023-07-22T03:53:06;14.90;99.90
4548;DHT22;2286;51.570;7.090;2023-07-22T03:55:33;14.90;99.90
4548;DHT22;2286;51.570;7.090;2023-07-22T03:58:01;14.90;99.90
4548;DHT22;2286;51.570;7.090;2023-07-22T04:00:28;14.90;99.90
4548;DHT22;2286;51.570;7.090;2023-07-22T04:02:55;15.00;99.90
4548;DHT22;2286;51.570;7.090;2023-07-22T04:05:22;15.00;1.00
4548;DHT22;2286;51.570;7.090;2023-07-22T04:07:49;15.00;1.00
4548;DHT22;2286;51.570;7.090;2023-07-22T04:10:16;15.00;1.00
4548;DHT22;2286;51.570;7.090;2023-07-22T04:12:43;15.10;1.00
4548;DHT22;2286;51.570;7.090;2023-07-22T04:15:11;15.10;99.90
4548;DHT22;2286;51.570;7.090;2023-07-22T04:17:39;15.10;99.90
4548;DHT22;2286;51.570;7.090;2023-07-22T04:20:07;15.20;99.90
4548;DHT22;2286;51.570;7.090;2023-07-22T04:22:34;15.20;99.90
4548;DHT22;2286;51.570;7.090;2023-07-22T04:25:01;15.20;99.90
4548;DHT22;2286;51.570;7.090;2023-07-22T04:27:28;15.20;99.90
4548;DHT22;2286;51.570;7.090;2023-07-22T04:29:55;15.20;99.90
4548;DHT22;2286;51.570;7.090;2023-07-22T04:32:23;15.10;99.90
4548;DHT22;2286;51.570;7.090;2023-07-22T04:34:50;15.10;99.90
4548;DHT22;2286;51.570;7.090;2023-07-22T04:37:17;15.20;1.00
4548;DHT22;2286;51.570;7.090;2023-07-22T04:39:48;15.20;1.00
4548;DHT22;2286;51.570;7.090;2023-07-22T04:42:15;15.20;1.00
4548;DHT22;2286;51.570;7.090;2023-07-22T04:44:42;15.20;1.00
4548;DHT22;2286;51.570;7.090;2023-07-22T04:47:09;15.30;1.00
4548;DHT22;2286;51.570;7.090;2023-07-22T04:49:39;15.20;1.00
4548;DHT22;2286;51.570;7.090;2023-07-22T04:52:07;15.30;1.00
4548;DHT22;2286;51.570;7.090;2023-07-22T04:54:34;15.30;1.00
4548;DHT22;2286;51.570;7.090;2023-07-22T04:57:00;15.30;1.00
4548;DHT22;2286;51.570;7.090;2023-07-22T04:59:28;15.30;1.00
4548;DHT22;2286;51.570;7.090;2023-07-22T05:01:55;15.30;1.00
4548;DHT22;2286;51.570;7.090;2023-07-22T05:04:22;15.40;1.00
4548;DHT22;2286;51.570;7.090;2023-07-22T05:06:51;15.40;1.00
4548;DHT22;2286;51.570;7.090;2023-07-22T05:09:18;15.50;1.00
4548;DHT22;2286;51.570;7.090;2023-07-22T05:11:44;15.50;1.00
4548;DHT22;2286;51.570;7.090;2023-07-22T05:14:11;15.50;1.00
4548;DHT22;2286;51.570;7.090;2023-07-22T05:16:38;15.60;1.00
4548;DHT22;2286;51.570;7.090;2023-07-22T05:19:05;15.70;1.00
4548;DHT22;2286;51.570;7.090;2023-07-22T05:21:33;15.70;1.00
4548;DHT22;2286;51.570;7.090;2023-07-22T05:24:02;15.80;1.00
4548;DHT22;2286;51.570;7.090;2023-07-22T05:26:29;15.70;99.90
4548;DHT22;2286;51.570;7.090;2023-07-22T05:28:56;15.80;99.90
4548;DHT22;2286;51.570;7.090;2023-07-22T05:31:23;15.70;99.90
4548;DHT22;2286;51.570;7.090;2023-07-22T05:33:50;15.70;99.90
4548;DHT22;2286;51.570;7.090;2023-07-22T05:36:17;15.60;99.90
4548;DHT22;2286;51.570;7.090;2023-07-22T05:38:44;15.60;99.90
4548;DHT22;2286;51.570;7.090;2023-07-22T05:41:12;15.50;99.90
4548;DHT22;2286;51.570;7.090;2023-07-22T05:43:39;15.50;99.90
4548;DHT22;2286;51.570;7.090;2023-07-22T05:46:06;15.60;99.90
4548;DHT22;2286;51.570;7.090;2023-07-22T05:48:33;15.60;99.90
4548;DHT22;2286;51.570;7.090;2023-07-22T05:51:00;15.50;1.00
4548;DHT22;2286;51.570;7.090;2023-07-22T05:53:28;15.50;1.00
4548;DHT22;2286;51.570;7.090;2023-07-22T05:55:54;15.60;1.00
4548;DHT22;2286;51.570;7.090;2023-07-22T05:58:23;15.60;1.00
4548;DHT22;2286;51.570;7.090;2023-07-22T06:00:50;15.70;99.90
4548;DHT22;2286;51.570;7.090;2023-07-22T06:03:18;15.70;99.90
4548;DHT22;2286;51.570;7.090;2023-07-22T06:05:45;15.80;99.90
4548;DHT22;2286;51.570;7.090;2023-07-22T06:08:12;15.80;99.90
4548;DHT22;2286;51.570;7.090;2023-07-22T06:10:40;15.80;99.90
4548;DHT22;2286;51.570;7.090;2023-07-22T06:13:07;15.90;99.90
4548;DHT22;2286;51.570;7.090;2023-07-22T06:15:35;15.90;99.90
4548;DHT22;2286;51.570;7.090;2023-07-22T06:18:03;15.90;99.90
4548;DHT22;2286;51.570;7.090;2023-07-22T06:20:33;15.80;99.90
4548;DHT22;2286;51.570;7.090;2023-07-22T06:23:01;15.90;99.90
4548;DHT22;2286;51.570;7.090;2023-07-22T06:25:28;15.90;99.90
4548;DHT22;2286;51.570;7.090;2023-07-22T06:27:55;15.90;99.90
4548;DHT22;2286;51.570;7.090;2023-07-22T06:30:22;16.00;99.90
4548;DHT22;2286;51.570;7.090;2023-07-22T06:32:50;16.00;99.90
4548;DHT22;2286;51.570;7.090;2023-07-22T06:35:17;16.00;99.90
4548;DHT22;2286;51.570;7.090;2023-07-22T06:37:44;16.00;99.90
4548;DHT22;2286;51.570;7.090;2023-07-22T06:40:11;16.00;99.90
4548;DHT22;2286;51.570;7.090;2023-07-22T06:42:38;16.10;99.90
4548;DHT22;2286;51.570;7.090;2023-07-22T06:45:06;16.20;99.90
4548;DHT22;2286;51.570;7.090;2023-07-22T06:47:33;16.30;99.90
4548;DHT22;2286;51.570;7.090;2023-07-22T06:50:02;16.40;99.90
4548;DHT22;2286;51.570;7.090;2023-07-22T06:52:29;16.40;89.70
4548;DHT22;2286;51.570;7.090;2023-07-22T06:54:57;16.50;97.70
4548;DHT22;2286;51.570;7.090;2023-07-22T06:57:24;16.60;41.20
4548;DHT22;2286;51.570;7.090;2023-07-22T06:59:53;16.70;13.40
4548;DHT22;2286;51.570;7.090;2023-07-22T07:02:21;16.70;36.50
4548;DHT22;2286;51.570;7.090;2023-07-22T07:04:48;16.90;1.00
4548;DHT22;2286;51.570;7.090;2023-07-22T07:07:16;17.00;1.00
4548;DHT22;2286;51.570;7.090;2023-07-22T07:09:43;17.10;1.00
4548;DHT22;2286;51.570;7.090;2023-07-22T07:12:10;17.20;1.00
4548;DHT22;2286;51.570;7.090;2023-07-22T07:14:37;17.20;1.00
4548;DHT22;2286;51.570;7.090;2023-07-22T07:17:04;17.30;1.00
4548;DHT22;2286;51.570;7.090;2023-07-22T07:19:31;17.30;1.00
4548;DHT22;2286;51.570;7.090;2023-07-22T07:21:58;17.40;1.00
4548;DHT22;2286;51.570;7.090;2023-07-22T07:24:27;17.40;1.00
4548;DHT22;2286;51.570;7.090;2023-07-22T07:26:54;17.30;1.00
4548;DHT22;2286;51.570;7.090;2023-07-22T07:29:21;17.40;1.00
4548;DHT22;2286;51.570;7.090;2023-07-22T07:31:47;17.50;1.00
4548;DHT22;2286;51.570;7.090;2023-07-22T07:34:14;17.60;1.00
4548;DHT22;2286;51.570;7.090;2023-07-22T07:36:41;17.70;99.90
4548;DHT22;2286;51.570;7.090;2023-07-22T07:39:08;17.60;99.90
4548;DHT22;2286;51.570;7.090;2023-07-22T07:41:36;17.80;99.90
4548;DHT22;2286;51.570;7.090;2023-07-22T07:44:05;17.90;99.90
4548;DHT22;2286;51.570;7.090;2023-07-22T07:46:32;18.10;99.90
4548;DHT22;2286;51.570;7.090;2023-07-22T07:49:00;18.20;99.90
4548;DHT22;2286;51.570;7.090;2023-07-22T07:51:29;18.30;99.90
4548;DHT22;2286;51.570;7.090;2023-07-22T07:53:57;18.40;99.90
4548;DHT22;2286;51.570;7.090;2023-07-22T07:56:25;18.50;99.90
4548;DHT22;2286;51.570;7.090;2023-07-22T07:58:54;18.80;99.90
4548;DHT22;2286;51.570;7.090;2023-07-22T08:01:21;19.10;99.90
4548;DHT22;2286;51.570;7.090;2023-07-22T08:03:48;19.30;99.90
4548;DHT22;2286;51.570;7.090;2023-07-22T08:06:16;19.50;99.90
4548;DHT22;2286;51.570;7.090;2023-07-22T08:08:43;19.70;99.90
4548;DHT22;2286;51.570;7.090;2023-07-22T08:11:12;19.40;99.90
4548;DHT22;2286;51.570;7.090;2023-07-22T08:13:40;19.40;99.90
4548;DHT22;2286;51.570;7.090;2023-07-22T08:16:10;19.30;99.90
4548;DHT22;2286;51.570;7.090;2023-07-22T08:18:37;19.20;99.90
4548;DHT22;2286;51.570;7.090;2023-07-22T08:21:06;19.20;99.90
4548;DHT22;2286;51.570;7.090;2023-07-22T08:23:33;19.00;99.90
4548;DHT22;2286;51.570;7.090;2023-07-22T08:26:01;19.20;99.90
4548;DHT22;2286;51.570;7.090;2023-07-22T08:28:30;19.30;99.90
4548;DHT22;2286;51.570;7.090;2023-07-22T08:30:57;19.30;99.90
4548;DHT22;2286;51.570;7.090;2023-07-22T08:33:27;19.50;99.90
4548;DHT22;2286;51.570;7.090;2023-07-22T08:35:54;19.80;99.90
4548;DHT22;2286;51.570;7.090;2023-07-22T08:38:21;20.00;99.90
4548;DHT22;2286;51.570;7.090;2023-07-22T08:40:49;20.20;99.90
4548;DHT22;2286;51.570;7.090;2023-07-22T08:43:20;20.10;99.90
4548;DHT22;2286;51.570;7.090;2023-07-22T08:45:48;20.10;99.90
4548;DHT22;2286;51.570;7.090;2023-07-22T08:48:16;20.20;99.90
4548;DHT22;2286;51.570;7.090;2023-07-22T08:50:49;20.50;99.90
4548;DHT22;2286;51.570;7.090;2023-07-22T08:53:17;20.70;99.90
4548;DHT22;2286;51.570;7.090;2023-07-22T08:55:45;20.90;99.90
4548;DHT22;2286;51.570;7.090;2023-07-22T08:58:14;21.10;99.90
4548;DHT22;2286;51.570;7.090;2023-07-22T09:00:41;21.20;99.90
4548;DHT22;2286;51.570;7.090;2023-07-22T09:03:09;20.90;99.90
4548;DHT22;2286;51.570;7.090;2023-07-22T09:05:36;21.20;99.90
4548;DHT22;2286;51.570;7.090;2023-07-22T09:08:07;21.10;99.90
4548;DHT22;2286;51.570;7.090;2023-07-22T09:10:35;21.30;99.90
4548;DHT22;2286;51.570;7.090;2023-07-22T09:13:03;21.20;99.90
4548;DHT22;2286;51.570;7.090;2023-07-22T09:15:32;21.00;99.90
4548;DHT22;2286;51.570;7.090;2023-07-22T09:18:01;21.30;99.90
4548;DHT22;2286;51.570;7.090;2023-07-22T09:20:28;21.70;99.90
4548;DHT22;2286;51.570;7.090;2023-07-22T09:22:56;21.40;99.90
4548;DHT22;2286;51.570;7.090;2023-07-22T09:25:25;21.50;99.90
4548;DHT22;2286;51.570;7.090;2023-07-22T09:27:54;21.60;99.90
4548;DHT22;2286;51.570;7.090;2023-07-22T09:30:23;21.40;99.90
4548;DHT22;2286;51.570;7.090;2023-07-22T09:32:51;21.60;99.90
4548;DHT22;2286;51.570;7.090;2023-07-22T09:35:19;21.80;99.90
4548;DHT22;2286;51.570;7.090;2023-07-22T09:37:46;21.90;99.90
4548;DHT22;2286;51.570;7.090;2023-07-22T09:40:14;22.00;99.90
4548;DHT22;2286;51.570;7.090;2023-07-22T09:42:45;22.00;99.90
4548;DHT22;2286;51.570;7.090;2023-07-22T09:45:12;22.00;99.90
4548;DHT22;2286;51.570;7.090;2023-07-22T09:47:40;22.30;99.90
4548;DHT22;2286;51.570;7.090;2023-07-22T09:50:11;22.10;99.90
4548;DHT22;2286;51.570;7.090;2023-07-22T09:52:45;21.60;99.90
4548;DHT22;2286;51.570;7.090;2023-07-22T09:55:13;21.40;99.90
4548;DHT22;2286;51.570;7.090;2023-07-22T09:57:45;21.80;99.90
4548;DHT22;2286;51.570;7.090;2023-07-22T10:00:14;21.80;99.90
4548;DHT22;2286;51.570;7.090;2023-07-22T10:02:42;22.20;99.90
4548;DHT22;2286;51.570;7.090;2023-07-22T10:05:13;22.30;99.90
4548;DHT22;2286;51.570;7.090;2023-07-22T10:07:47;22.40;99.90
4548;DHT22;2286;51.570;7.090;2023-07-22T10:10:16;22.60;99.90
4548;DHT22;2286;51.570;7.090;2023-07-22T10:12:45;22.70;99.90
4548;DHT22;2286;51.570;7.090;2023-07-22T10:15:14;22.90;99.90
4548;DHT22;2286;51.570;7.090;2023-07-22T10:17:44;22.90;99.90
4548;DHT22;2286;51.570;7.090;2023-07-22T10:20:13;23.20;99.90
4548;DHT22;2286;51.570;7.090;2023-07-22T10:22:42;23.50;99.90
4548;DHT22;2286;51.570;7.090;2023-07-22T10:25:12;23.60;99.90
4548;DHT22;2286;51.570;7.090;2023-07-22T10:27:40;23.40;99.90
4548;DHT22;2286;51.570;7.090;2023-07-22T10:30:10;23.10;99.90
4548;DHT22;2286;51.570;7.090;2023-07-22T10:32:39;23.40;99.90
4548;DHT22;2286;51.570;7.090;2023-07-22T10:35:09;23.60;99.90
4548;DHT22;2286;51.570;7.090;2023-07-22T10:37:37;23.60;99.90
4548;DHT22;2286;51.570;7.090;2023-07-22T10:40:25;23.60;99.90
4548;DHT22;2286;51.570;7.090;2023-07-22T10:42:54;24.00;99.90
4548;DHT22;2286;51.570;7.090;2023-07-22T10:45:30;24.80;99.90
4548;DHT22;2286;51.570;7.090;2023-07-22T10:48:05;24.60;99.90
4548;DHT22;2286;51.570;7.090;2023-07-22T10:50:40;24.50;99.90
4548;DHT22;2286;51.570;7.090;2023-07-22T10:53:11;24.00;99.90
4548;DHT22;2286;51.570;7.090;2023-07-22T10:56:10;24.00;99.90
4548;DHT22;2286;51.570;7.090;2023-07-22T10:59:00;25.40;99.90
4548;DHT22;2286;51.570;7.090;2023-07-22T11:01:37;25.40;99.90
4548;DHT22;2286;51.570;7.090;2023-07-22T11:04:21;25.50;99.90
4548;DHT22;2286;51.570;7.090;2023-07-22T11:06:54;27.00;99.90
4548;DHT22;2286;51.570;7.090;2023-07-22T11:09:38;26.40;99.90
4548;DHT22;2286;51.570;7.090;2023-07-22T11:12:09;25.00;99.90
4548;DHT22;2286;51.570;7.090;2023-07-22T11:14:39;24.70;99.90
4548;DHT22;2286;51.570;7.090;2023-07-22T11:17:08;24.20;99.90
4548;DHT22;2286;51.570;7.090;2023-07-22T11:19:37;24.40;99.90
4548;DHT22;2286;51.570;7.090;2023-07-22T11:22:04;25.00;99.90
4548;DHT22;2286;51.570;7.090;2023-07-22T11:24:33;24.80;99.90
4548;DHT22;2286;51.570;7.090;2023-07-22T11:27:03;25.40;99.90
4548;DHT22;2286;51.570;7.090;2023-07-22T11:29:30;25.40;99.90
4548;DHT22;2286;51.570;7.090;2023-07-22T11:31:57;25.20;99.90
4548;DHT22;2286;51.570;7.090;2023-07-22T11:34:26;24.80;99.90
4548;DHT22;2286;51.570;7.090;2023-07-22T11:36:54;25.20;99.90
4548;DHT22;2286;51.570;7.090;2023-07-22T11:39:23;25.30;99.90
4548;DHT22;2286;51.570;7.090;2023-07-22T11:41:51;25.50;99.90
4548;DHT22;2286;51.570;7.090;2023-07-22T11:44:19;25.30;99.90
4548;DHT22;2286;51.570;7.090;2023-07-22T11:46:48;25.00;98.80
4548;DHT22;2286;51.570;7.090;2023-07-22T11:49:27;24.90;99.00
4548;DHT22;2286;51.570;7.090;2023-07-22T11:51:56;25.20;99.40
4548;DHT22;2286;51.570;7.090;2023-07-22T11:54:23;25.90;99.90
4548;DHT22;2286;51.570;7.090;2023-07-22T11:56:50;25.70;99.60
4548;DHT22;2286;51.570;7.090;2023-07-22T11:59:17;25.30;98.00
4548;DHT22;2286;51.570;7.090;2023-07-22T12:02:00;25.30;98.50
4548;DHT22;2286;51.570;7.090;2023-07-22T12:04:28;24.70;96.40
4548;DHT22;2286;51.570;7.090;2023-07-22T12:06:56;24.60;96.50
4548;DHT22;2286;51.570;7.090;2023-07-22T12:09:23;25.30;98.80
4548;DHT22;2286;51.570;7.090;2023-07-22T12:11:55;25.10;96.70
4548;DHT22;2286;51.570;7.090;2023-07-22T12:14:23;24.80;96.70
4548;DHT22;2286;51.570;7.090;2023-07-22T12:16:55;24.30;95.10
4548;DHT22;2286;51.570;7.090;2023-07-22T12:19:23;24.50;95.70
4548;DHT22;2286;51.570;7.090;2023-07-22T12:21:52;25.30;98.00
4548;DHT22;2286;51.570;7.090;2023-07-22T12:24:19;26.10;99.90
4548;DHT22;2286;51.570;7.090;2023-07-22T12:26:46;26.60;99.90
4548;DHT22;2286;51.570;7.090;2023-07-22T12:29:13;26.10;98.70
4548;DHT22;2286;51.570;7.090;2023-07-22T12:31:40;25.90;98.00
4548;DHT22;2286;51.570;7.090;2023-07-22T12:34:07;26.50;99.10
4548;DHT22;2286;51.570;7.090;2023-07-22T12:36:34;26.40;98.10
4548;DHT22;2286;51.570;7.090;2023-07-22T12:39:03;26.40;99.10
4548;DHT22;2286;51.570;7.090;2023-07-22T12:41:30;26.60;98.00
4548;DHT22;2286;51.570;7.090;2023-07-22T12:43:58;26.30;96.70
4548;DHT22;2286;51.570;7.090;2023-07-22T12:46:25;26.50;97.20
4548;DHT22;2286;51.570;7.090;2023-07-22T12:48:52;27.30;98.90
4548;DHT22;2286;51.570;7.090;2023-07-22T12:51:19;27.70;99.50
4548;DHT22;2286;51.570;7.090;2023-07-22T12:53:46;28.00;99.10
4548;DHT22;2286;51.570;7.090;2023-07-22T12:56:15;27.60;97.50
4548;DHT22;2286;51.570;7.090;2023-07-22T12:58:41;27.60;96.40
4548;DHT22;2286;51.570;7.090;2023-07-22T13:01:08;27.30;95.60
4548;DHT22;2286;51.570;7.090;2023-07-22T13:03:35;27.40;96.30
4548;DHT22;2286;51.570;7.090;2023-07-22T13:06:02;27.30;95.50
4548;DHT22;2286;51.570;7.090;2023-07-22T13:08:29;27.20;95.40
4548;DHT22;2286;51.570;7.090;2023-07-22T13:10:56;26.70;93.70
4548;DHT22;2286;51.570;7.090;2023-07-22T13:13:25;26.40;93.40
4548;DHT22;2286;51.570;7.090;2023-07-22T13:15:52;26.80;94.10
4548;DHT22;2286;51.570;7.090;2023-07-22T13:18:19;27.40;95.30
4548;DHT22;2286;51.570;7.090;2023-07-22T13:20:46;27.00;94.30
4548;DHT22;2286;51.570;7.090;2023-07-22T13:23:13;26.60;93.10
4548;DHT22;2286;51.570;7.090;2023-07-22T13:25:40;25.70;90.40
4548;DHT22;2286;51.570;7.090;2023-07-22T13:28:07;25.80;91.50
4548;DHT22;2286;51.570;7.090;2023-07-22T13:30:36;26.80;94.90
4548;DHT22;2286;51.570;7.090;2023-07-22T13:33:03;27.30;95.10
4548;DHT22;2286;51.570;7.090;2023-07-22T13:35:30;26.50;92.00
4548;DHT22;2286;51.570;7.090;2023-07-22T13:37:57;26.30;91.60
4548;DHT22;2286;51.570;7.090;2023-07-22T13:40:24;26.20;91.40
4548;DHT22;2286;51.570;7.090;2023-07-22T13:42:52;26.00;90.70
4548;DHT22;2286;51.570;7.090;2023-07-22T13:45:19;25.70;89.10
4548;DHT22;2286;51.570;7.090;2023-07-22T13:47:47;25.90;90.60
4548;DHT22;2286;51.570;7.090;2023-07-22T13:50:15;25.80;89.90
4548;DHT22;2286;51.570;7.090;2023-07-22T13:52:42;25.50;88.70
4548;DHT22;2286;51.570;7.090;2023-07-22T13:55:09;25.70;90.00
4548;DHT22;2286;51.570;7.090;2023-07-22T13:57:37;25.30;85.70
4548;DHT22;2286;51.570;7.090;2023-07-22T14:00:05;25.10;85.50
4548;DHT22;2286;51.570;7.090;2023-07-22T14:02:34;25.10;86.40
4548;DHT22;2286;51.570;7.090;2023-07-22T14:05:03;26.00;90.20
4548;DHT22;2286;51.570;7.090;2023-07-22T14:07:30;26.50;91.30
4548;DHT22;2286;51.570;7.090;2023-07-22T14:09:58;26.20;89.40
4548;DHT22;2286;51.570;7.090;2023-07-22T14:12:25;26.50;90.80
4548;DHT22;2286;51.570;7.090;2023-07-22T14:14:52;26.30;94.70
4548;DHT22;2286;51.570;7.090;2023-07-22T14:17:19;26.40;90.00
4548;DHT22;2286;51.570;7.090;2023-07-22T14:19:46;26.30;90.20
4548;DHT22;2286;51.570;7.090;2023-07-22T14:22:14;26.50;89.90
4548;DHT22;2286;51.570;7.090;2023-07-22T14:24:41;26.40;90.40
4548;DHT22;2286;51.570;7.090;2023-07-22T14:27:09;26.40;89.80
4548;DHT22;2286;51.570;7.090;2023-07-22T14:29:36;26.50;89.70
4548;DHT22;2286;51.570;7.090;2023-07-22T14:32:03;26.70;90.50
4548;DHT22;2286;51.570;7.090;2023-07-22T14:34:30;27.00;90.90
4548;DHT22;2286;51.570;7.090;2023-07-22T14:36:58;27.10;91.20
4548;DHT22;2286;51.570;7.090;2023-07-22T14:39:26;27.10;90.70
4548;DHT22;2286;51.570;7.090;2023-07-22T14:41:54;27.40;90.90
4548;DHT22;2286;51.570;7.090;2023-07-22T14:44:21;27.20;90.00
4548;DHT22;2286;51.570;7.090;2023-07-22T14:46:48;26.90;88.60
4548;DHT22;2286;51.570;7.090;2023-07-22T14:49:15;26.50;85.30
4548;DHT22;2286;51.570;7.090;2023-07-22T14:51:42;26.10;83.50
4548;DHT22;2286;51.570;7.090;2023-07-22T14:54:10;26.10;82.80
4548;DHT22;2286;51.570;7.090;2023-07-22T14:56:38;25.80;82.60
4548;DHT22;2286;51.570;7.090;2023-07-22T14:59:06;26.80;90.90
4548;DHT22;2286;51.570;7.090;2023-07-22T15:01:37;28.20;93.20
4548;DHT22;2286;51.570;7.090;2023-07-22T15:04:04;28.20;91.90
4548;DHT22;2286;51.570;7.090;2023-07-22T15:06:32;29.30;94.20
4548;DHT22;2286;51.570;7.090;2023-07-22T15:09:00;29.40;93.00
4548;DHT22;2286;51.570;7.090;2023-07-22T15:11:28;27.90;89.20
4548;DHT22;2286;51.570;7.090;2023-07-22T15:13:56;27.10;84.70
4548;DHT22;2286;51.570;7.090;2023-07-22T15:16:23;27.10;85.50
4548;DHT22;2286;51.570;7.090;2023-07-22T15:18:50;27.10;86.20
4548;DHT22;2286;51.570;7.090;2023-07-22T15:21:17;27.00;84.20
4548;DHT22;2286;51.570;7.090;2023-07-22T15:23:45;26.70;82.90
4548;DHT22;2286;51.570;7.090;2023-07-22T15:26:12;27.20;86.20
4548;DHT22;2286;51.570;7.090;2023-07-22T15:28:39;28.30;90.70
4548;DHT22;2286;51.570;7.090;2023-07-22T15:31:08;29.10;91.50
4548;DHT22;2286;51.570;7.090;2023-07-22T15:33:35;28.60;90.10
4548;DHT22;2286;51.570;7.090;2023-07-22T15:36:03;28.40;88.80
4548;DHT22;2286;51.570;7.090;2023-07-22T15:38:30;29.00;90.80
4548;DHT22;2286;51.570;7.090;2023-07-22T15:40:57;27.90;85.10
4548;DHT22;2286;51.570;7.090;2023-07-22T15:43:25;27.00;80.20
4548;DHT22;2286;51.570;7.090;2023-07-22T15:45:52;26.90;80.10
4548;DHT22;2286;51.570;7.090;2023-07-22T15:48:21;27.50;84.20
4548;DHT22;2286;51.570;7.090;2023-07-22T15:50:48;27.80;86.20
4548;DHT22;2286;51.570;7.090;2023-07-22T15:53:15;28.30;86.90
4548;DHT22;2286;51.570;7.090;2023-07-22T15:55:42;27.80;97.30
4548;DHT22;2286;51.570;7.090;2023-07-22T15:58:10;26.40;75.10
4548;DHT22;2286;51.570;7.090;2023-07-22T16:00:37;25.40;73.90
4548;DHT22;2286;51.570;7.090;2023-07-22T16:03:04;25.30;71.20
4548;DHT22;2286;51.570;7.090;2023-07-22T16:05:33;25.30;71.50
4548;DHT22;2286;51.570;7.090;2023-07-22T16:08:00;25.80;75.20
4548;DHT22;2286;51.570;7.090;2023-07-22T16:10:27;26.20;76.50